Time;durP1;ratioP1;P1;durP2;ratioP2;P2;SDS_P1;SDS_P2;PMS_P1;PMS_P2;Temp;Humidity;BMP_temperature;BMP_pressure;BME280_temperature;BME280_humidity;BME280_pressure;Samples;Min_cycle;Max_cycle;Signal;HPM_P1;HPM_P2
2023/10/07 00:10:36;;;;;;;13.00;5.10;;;;;;;16.71;100.00;99700.31;669112;1272;139461;-80
2023/10/07 00:25:44;;;;;;;7.60;4.70;;;;;;;16.93;100.00;99686.17;669659;1263;139617;-80
2023/10/07 00:40:52;;;;;;;8.90;4.30;;;;;;;17.13;100.00;99654.87;669978;1273;140604;-80
2023/10/07 00:55:58;;;;;;;10.00;4.80;;;;;;;17.26;100.00;99631.90;668397;1276;139996;-79
2023/10/07 01:11:40;;;;;;;10.10;3.80;;;;;;;17.38;100.00;99607.74;668433;1263;139189;-79
2023/10/07 01:26:31;;;;;;;6.90;3.70;;;;;;;17.52;100.00;99587.95;669485;1262;139349;-79
2023/10/07 01:41:38;;;;;;;10.30;3.90;;;;;;;17.42;100.00;99556.70;668619;1263;139210;-77
2023/10/07 01:56:41;;;;;;;6.20;3.60;;;;;;;17.37;100.00;99518.71;668248;1262;139353;-77
2023/10/07 02:11:45;;;;;;;7.50;3.70;;;;;;;17.28;100.00;99498.94;668469;1257;139419;-78
2023/10/07 02:26:54;;;;;;;9.00;4.60;;;;;;;17.13;100.00;99463.39;668241;1264;139311;-79
2023/10/07 02:41:57;;;;;;;9.20;4.20;;;;;;;17.15;100.00;99447.44;668608;1259;139627;-79
2023/10/07 02:57:22;;;;;;;10.80;4.50;;;;;;;17.19;100.00;99432.90;667698;1260;140740;-78
2023/10/07 03:12:29;;;;;;;8.70;5.00;;;;;;;17.41;100.00;99397.00;667817;1262;139976;-78
2023/10/07 03:27:39;;;;;;;11.30;3.70;;;;;;;17.67;100.00;99373.27;668148;1264;139829;-78
2023/10/07 03:42:42;;;;;;;7.70;4.20;;;;;;;17.87;100.00;99386.92;667904;1263;139383;-78
2023/10/07 03:57:46;;;;;;;6.60;3.60;;;;;;;17.99;100.00;99414.22;668615;1263;140405;-78
2023/10/07 04:12:49;;;;;;;9.10;3.10;;;;;;;18.20;100.00;99384.52;668800;1264;139285;-77
2023/10/07 04:27:53;;;;;;;7.20;3.10;;;;;;;18.45;100.00;99382.80;668217;1264;138858;-78
2023/10/07 04:43:25;;;;;;;8.60;3.60;;;;;;;18.79;100.00;99408.47;668126;1259;139327;-79
2023/10/07 04:58:24;;;;;;;5.80;2.90;;;;;;;18.69;100.00;99385.77;669087;1264;139326;-77
2023/10/07 05:13:28;;;;;;;7.00;3.40;;;;;;;18.65;100.00;99366.06;667714;1264;140213;-78
2023/10/07 05:28:33;;;;;;;8.00;3.60;;;;;;;18.53;100.00;99363.91;667780;1264;140167;-78
2023/10/07 05:43:48;;;;;;;6.00;2.90;;;;;;;18.52;100.00;99374.19;668369;1262;139273;-78
2023/10/07 05:58:52;;;;;;;7.20;3.20;;;;;;;18.69;100.00;99370.29;668563;1263;139208;-79
2023/10/07 06:13:55;;;;;;;6.10;3.70;;;;;;;18.75;100.00;99371.66;669718;1262;140140;-80
2023/10/07 06:29:18;;;;;;;18.00;9.10;;;;;;;18.92;99.78;99367.20;669373;1263;139164;-78
2023/10/07 06:44:24;;;;;;;6.70;3.90;;;;;;;19.33;98.68;99403.52;668712;1260;139971;-78
2023/10/07 06:59:28;;;;;;;7.60;2.80;;;;;;;19.33;99.09;99411.70;669488;1259;140002;-79
2023/10/07 07:14:33;;;;;;;6.00;3.30;;;;;;;19.57;97.56;99425.43;677009;1259;139027;-79
2023/10/07 07:29:37;;;;;;;6.60;3.00;;;;;;;19.71;96.44;99440.64;673519;1273;139190;-81
2023/10/07 07:44:56;;;;;;;7.60;3.50;;;;;;;19.79;96.65;99460.69;673730;1260;142142;-79
2023/10/07 08:00:00;;;;;;;7.00;2.70;;;;;;;20.33;94.68;99479.60;672731;1264;139174;-80
2023/10/07 08:30:37;;;;;;;15.30;4.00;;;;;;;22.05;73.81;99544.27;671812;1264;140089;-78
2023/10/07 08:45:41;;;;;;;21.10;10.40;;;;;;;21.80;69.90;99556.69;672039;1263;139301;-79
2023/10/07 09:00:45;;;;;;;18.40;6.20;;;;;;;22.28;67.18;99581.92;675431;1259;139730;-79
2023/10/07 09:15:53;;;;;;;13.80;3.50;;;;;;;22.00;67.50;99603.44;671097;1259;138565;-79
2023/10/07 09:31:04;;;;;;;13.30;3.60;;;;;;;21.73;66.41;99618.08;670953;1263;139954;-78
2023/10/07 09:46:10;;;;;;;14.60;2.90;;;;;;;22.70;63.80;99636.40;674796;1262;137471;-79
2023/10/07 10:01:38;;;;;;;11.80;3.70;;;;;;;22.32;60.42;99665.82;672037;1264;139384;-78
2023/10/07 10:16:45;;;;;;;5.70;2.10;;;;;;;22.50;59.44;99691.75;673810;1263;139085;-80
2023/10/07 10:31:50;;;;;;;8.60;2.70;;;;;;;22.68;57.89;99699.61;674102;1260;138084;-79
2023/10/07 10:46:55;;;;;;;9.00;3.10;;;;;;;21.75;58.25;99716.30;674075;1270;139297;-79
2023/10/07 11:02:01;;;;;;;9.60;2.60;;;;;;;21.27;59.37;99718.02;674320;1266;138506;-79
2023/10/07 11:17:05;;;;;;;11.70;3.70;;;;;;;20.69;60.23;99741.26;674045;1274;139187;-79
2023/10/07 11:32:12;;;;;;;9.30;2.40;;;;;;;21.55;60.77;99745.75;673822;1262;140299;-79
2023/10/07 11:47:16;;;;;;;10.80;2.30;;;;;;;21.21;60.04;99754.67;673672;1274;138496;-79
2023/10/07 12:02:21;;;;;;;35.60;14.50;;;;;;;20.26;60.65;99755.53;673540;1263;138738;-79
2023/10/07 12:17:25;;;;;;;16.80;6.00;;;;;;;19.82;59.32;99791.52;673614;1263;138733;-80
2023/10/07 12:32:32;;;;;;;16.00;5.80;;;;;;;19.81;58.37;99812.30;672900;1263;139010;-78
2023/10/07 12:47:43;;;;;;;21.20;7.80;;;;;;;19.68;55.25;99829.45;672660;1263;138123;-79
2023/10/07 13:02:50;;;;;;;25.10;7.70;;;;;;;19.39;53.30;99847.59;673010;1267;140085;-79
2023/10/07 13:17:54;;;;;;;16.30;4.30;;;;;;;18.93;51.55;99851.17;673643;1265;138322;-79
2023/10/07 13:32:57;;;;;;;9.80;3.90;;;;;;;18.67;50.75;99859.99;673307;1259;138913;-79
2023/10/07 13:48:03;;;;;;;10.40;4.30;;;;;;;18.51;51.21;99849.20;673498;1262;139013;-80
2023/10/07 14:03:19;;;;;;;9.10;4.20;;;;;;;18.51;52.19;99852.25;673334;1262;138624;-79
2023/10/07 14:18:24;;;;;;;33.60;12.20;;;;;;;18.47;52.78;99849.33;673102;1262;138369;-79
2023/10/07 14:33:28;;;;;;;8.40;3.00;;;;;;;18.54;53.12;99859.20;673903;1262;138911;-81
2023/10/07 14:48:34;;;;;;;10.20;3.30;;;;;;;18.12;52.53;99869.16;673866;1263;138560;-80
2023/10/07 15:03:39;;;;;;;7.40;3.30;;;;;;;17.88;52.08;99858.34;673849;1262;139586;-78
2023/10/07 15:18:49;;;;;;;7.60;4.30;;;;;;;17.94;52.47;99847.77;678680;1263;138447;-80
2023/10/07 15:34:07;;;;;;;12.80;4.60;;;;;;;17.53;53.56;99840.95;673643;1262;139106;-79
2023/10/07 15:49:10;;;;;;;7.80;4.40;;;;;;;17.28;54.51;99853.21;672919;1259;139882;-80
2023/10/07 16:04:15;;;;;;;8.50;3.60;;;;;;;17.07;55.16;99864.83;673289;1264;138088;-80
2023/10/07 16:19:19;;;;;;;94.10;37.10;;;;;;;16.97;55.24;99887.36;672640;1264;138232;-79
2023/10/07 16:34:23;;;;;;;33.00;13.80;;;;;;;16.81;55.67;99896.03;672774;1262;138263;-79
2023/10/07 16:49:26;;;;;;;38.50;19.30;;;;;;;16.35;55.19;99873.81;673398;1273;139167;-80
2023/10/07 17:04:30;;;;;;;9.10;5.50;;;;;;;16.25;54.97;99856.95;673310;1271;138653;-81
2023/10/07 17:19:36;;;;;;;5.30;3.00;;;;;;;16.16;55.10;99861.74;672940;1276;139382;-80
2023/10/07 17:34:40;;;;;;;22.30;11.60;;;;;;;16.11;55.70;99863.70;673635;1257;138213;-80
2023/10/07 17:49:43;;;;;;;15.00;7.20;;;;;;;15.93;55.49;99883.27;673689;1263;139395;-81
2023/10/07 18:04:47;;;;;;;19.90;10.50;;;;;;;15.82;55.81;99909.62;675465;1262;137947;-82
2023/10/07 18:19:51;;;;;;;14.40;9.30;;;;;;;15.72;55.72;99913.55;673881;1263;138595;-81
2023/10/07 18:34:54;;;;;;;11.70;7.90;;;;;;;15.61;56.24;99913.42;673608;1271;138430;-81
2023/10/07 18:49:58;;;;;;;13.10;10.20;;;;;;;15.39;56.93;99923.59;673498;1262;138933;-82
2023/10/07 19:05:04;;;;;;;24.40;11.40;;;;;;;15.33;57.41;99943.85;673368;1272;138675;-81
2023/10/07 19:20:08;;;;;;;14.60;10.40;;;;;;;15.23;58.59;99930.86;674187;1263;138891;-80
2023/10/07 19:35:13;;;;;;;14.10;7.50;;;;;;;14.87;59.89;99931.90;674868;1273;138680;-81
2023/10/07 19:50:17;;;;;;;12.30;5.40;;;;;;;14.51;61.24;99926.20;674315;1262;138745;-81
2023/10/07 20:05:22;;;;;;;10.70;5.30;;;;;;;14.45;61.41;99949.87;673634;1263;138285;-81
2023/10/07 20:20:25;;;;;;;21.00;9.80;;;;;;;14.85;61.18;99952.41;675085;1261;138179;-80
2023/10/07 20:35:33;;;;;;;31.60;14.40;;;;;;;14.93;61.46;99962.97;679950;1262;138551;-82
2023/10/07 20:50:38;;;;;;;47.50;17.70;;;;;;;14.73;61.92;99960.64;677175;1263;138878;-81
2023/10/07 21:05:42;;;;;;;51.00;20.30;;;;;;;14.55;63.12;99949.85;678816;1267;139522;-80
2023/10/07 21:20:47;;;;;;;29.50;11.20;;;;;;;14.39;64.02;99941.46;678400;1264;139680;-81
2023/10/07 21:35:54;;;;;;;33.30;13.10;;;;;;;14.43;64.58;99943.48;674778;1264;139068;-81
2023/10/07 21:51:08;;;;;;;9.70;4.70;;;;;;;14.43;64.71;99938.13;673512;1263;139369;-81
2023/10/07 22:06:13;;;;;;;9.70;4.40;;;;;;;14.36;65.14;99952.65;673214;1262;139520;-81
2023/10/07 22:21:18;;;;;;;5.40;2.60;;;;;;;14.35;65.39;99965.19;672729;1262;139212;-81
2023/10/07 22:36:22;;;;;;;7.10;3.00;;;;;;;14.21;65.69;99966.89;673412;1264;138974;-81
2023/10/07 22:51:27;;;;;;;10.10;2.70;;;;;;;14.12;65.83;99949.39;673691;1260;143073;-82
2023/10/07 23:06:31;;;;;;;4.60;2.40;;;;;;;14.17;65.79;99976.49;672831;1263;139062;-82
2023/10/07 23:36:55;;;;;;;3.70;2.00;;;;;;;14.04;65.65;99989.00;672867;1259;139114;-82
2023/10/07 23:51:59;;;;;;;7.40;1.80;;;;;;;14.10;65.47;100000.59;674965;1259;138880;-82
